Time;durP1;ratioP1;P1;durP2;ratioP2;P2;SDS_P1;SDS_P2;PMS_P1;PMS_P2;Temp;Humidity;BMP_temperature;BMP_pressure;BME280_temperature;BME280_humidity;BME280_pressure;Samples;Min_cycle;Max_cycle;Signal;HPM_P1;HPM_P2
2024/01/25 00:04:51;;;;;;;38.67;12.85;;;;;;;6.11;100.00;101804.81;10191094;28;20101;-70
2024/01/25 00:09:48;;;;;;;39.67;14.27;;;;;;;6.03;100.00;101786.28;10186916;28;20133;-72
2024/01/25 00:14:44;;;;;;;42.67;14.60;;;;;;;5.99;100.00;101779.75;10187480;28;20382;-70
2024/01/25 00:19:41;;;;;;;49.08;13.60;;;;;;;5.99;100.00;101774.34;10187921;28;20056;-71
2024/01/25 00:24:38;;;;;;;37.38;12.98;;;;;;;5.91;100.00;101777.50;10186505;28;20040;-71
2024/01/25 00:29:36;;;;;;;39.45;14.52;;;;;;;5.93;100.00;101802.47;10220536;28;20095;-71
2024/01/25 00:34:33;;;;;;;38.10;13.35;;;;;;;5.98;100.00;101810.69;10239473;28;20042;-69
2024/01/25 00:39:30;;;;;;;38.80;13.32;;;;;;;5.95;100.00;101816.66;10234246;28;20042;-69
2024/01/25 00:44:27;;;;;;;41.58;13.18;;;;;;;5.93;100.00;101816.06;10232639;28;20563;-69
2024/01/25 00:49:24;;;;;;;41.60;11.52;;;;;;;5.97;100.00;101819.94;10235323;28;20145;-68
2024/01/25 00:54:21;;;;;;;32.83;14.68;;;;;;;5.95;100.00;101822.06;10241363;28;20441;-70
2024/01/25 00:59:18;;;;;;;36.00;13.65;;;;;;;5.96;100.00;101809.31;10236276;28;20044;-70
2024/01/25 01:04:15;;;;;;;38.58;12.93;;;;;;;6.01;100.00;101821.06;10233243;28;20594;-70
2024/01/25 01:09:12;;;;;;;31.98;12.82;;;;;;;5.97;100.00;101800.13;10234262;28;20112;-71
2024/01/25 01:14:09;;;;;;;33.75;13.55;;;;;;;6.00;100.00;101830.25;10241233;28;20041;-72
2024/01/25 01:19:06;;;;;;;43.28;13.70;;;;;;;5.95;100.00;101822.06;10232730;28;20053;-72
2024/01/25 01:24:03;;;;;;;25.13;11.75;;;;;;;5.92;100.00;101828.00;10229834;28;20129;-72
2024/01/25 01:29:00;;;;;;;44.15;15.40;;;;;;;5.86;100.00;101839.88;10234034;28;20127;-72
2024/01/25 01:33:57;;;;;;;44.90;15.25;;;;;;;5.77;100.00;101830.56;10232044;28;20056;-71
2024/01/25 01:38:54;;;;;;;50.00;12.68;;;;;;;5.80;100.00;101821.91;10232956;28;20045;-71
2024/01/25 01:43:54;;;;;;;41.15;13.73;;;;;;;5.76;100.00;101839.81;10225616;28;20049;-71
2024/01/25 01:48:51;;;;;;;37.58;12.93;;;;;;;5.86;100.00;101835.28;10231898;28;20123;-72
2024/01/25 01:53:48;;;;;;;29.20;13.20;;;;;;;5.99;100.00;101866.63;10233952;28;20087;-73
2024/01/25 01:58:48;;;;;;;48.85;13.60;;;;;;;6.03;100.00;101861.50;10229510;28;20051;-71
2024/01/25 02:03:45;;;;;;;32.53;12.05;;;;;;;6.04;100.00;101869.38;10233195;28;20533;-71
2024/01/25 02:08:41;;;;;;;49.65;13.85;;;;;;;6.04;100.00;101868.56;10228900;28;20041;-71
2024/01/25 02:13:38;;;;;;;35.58;12.52;;;;;;;6.06;100.00;101894.38;10223647;28;20501;-71
2024/01/25 02:18:35;;;;;;;31.50;12.65;;;;;;;6.05;100.00;101881.88;10229808;28;20045;-69
2024/01/25 02:23:31;;;;;;;33.85;11.88;;;;;;;6.05;100.00;101886.50;10223110;28;20048;-70
2024/01/25 02:28:28;;;;;;;38.95;11.90;;;;;;;6.06;100.00;101894.38;10229337;28;20056;-71
2024/01/25 02:33:24;;;;;;;41.08;14.02;;;;;;;6.08;100.00;101885.97;10228825;28;20493;-70
2024/01/25 02:38:21;;;;;;;32.05;11.93;;;;;;;6.09;100.00;101877.56;10226036;28;20054;-71
2024/01/25 02:43:17;;;;;;;33.47;12.23;;;;;;;6.07;100.00;101912.31;10229267;28;20124;-70
2024/01/25 02:48:15;;;;;;;30.13;11.15;;;;;;;6.10;100.00;101881.94;10199055;28;20798;-70
2024/01/25 02:53:11;;;;;;;38.25;12.63;;;;;;;6.15;100.00;101907.47;10188726;28;20118;-69
2024/01/25 02:58:08;;;;;;;31.92;13.68;;;;;;;6.15;100.00;101907.47;10182589;28;20046;-69
2024/01/25 03:03:04;;;;;;;36.42;12.77;;;;;;;6.16;100.00;101909.13;10219141;28;20058;-68
2024/01/25 03:08:01;;;;;;;36.97;12.75;;;;;;;6.14;100.00;101912.09;10228860;28;21470;-69
2024/01/25 03:12:57;;;;;;;37.03;12.85;;;;;;;6.14;100.00;101928.38;10222582;28;20049;-70
2024/01/25 03:17:54;;;;;;;31.38;11.30;;;;;;;6.11;100.00;101929.72;10227751;28;20136;-69
2024/01/25 03:22:51;;;;;;;40.60;13.82;;;;;;;6.09;100.00;101953.59;10220711;28;20531;-71
2024/01/25 03:27:47;;;;;;;31.40;13.75;;;;;;;6.09;100.00;101940.03;10227774;28;20052;-72
2024/01/25 03:32:46;;;;;;;36.88;13.25;;;;;;;6.12;100.00;101946.84;10225570;28;20048;-71
2024/01/25 03:37:42;;;;;;;40.50;13.68;;;;;;;6.07;100.00;101950.31;10230671;28;20056;-71
2024/01/25 03:42:39;;;;;;;25.83;12.43;;;;;;;6.07;100.00;101952.22;10230287;28;20052;-71
2024/01/25 03:47:36;;;;;;;35.42;13.13;;;;;;;6.10;100.00;101965.28;10220442;28;20056;-71
2024/01/25 03:52:33;;;;;;;27.77;12.40;;;;;;;6.05;100.00;101974.19;10222644;28;20136;-71
2024/01/25 03:57:30;;;;;;;34.35;13.63;;;;;;;6.08;100.00;101987.28;10223395;28;20545;-71
2024/01/25 04:02:26;;;;;;;32.50;13.43;;;;;;;6.09;100.00;102002.47;10226470;28;20053;-71
2024/01/25 04:07:23;;;;;;;37.38;12.85;;;;;;;6.14;100.00;102009.03;10230043;28;20050;-72
2024/01/25 04:12:20;;;;;;;29.95;13.30;;;;;;;6.14;100.00;102014.47;10230999;28;20042;-71
2024/01/25 04:17:16;;;;;;;40.08;13.50;;;;;;;6.16;100.00;102007.72;10234842;28;20061;-71
2024/01/25 04:22:13;;;;;;;34.92;15.70;;;;;;;6.10;100.00;102025.00;10234507;28;20053;-72
2024/01/25 04:27:10;;;;;;;31.42;13.63;;;;;;;6.11;100.00;102022.06;10235935;28;20065;-71
2024/01/25 04:32:06;;;;;;;36.05;13.65;;;;;;;6.09;100.00;102018.78;10228047;28;20049;-72
2024/01/25 04:37:03;;;;;;;44.80;14.95;;;;;;;6.07;100.00;102048.06;10231248;28;20460;-71
2024/01/25 04:42:00;;;;;;;40.45;14.77;;;;;;;6.08;100.00;102044.31;10230251;28;20056;-72
2024/01/25 04:46:56;;;;;;;33.28;14.68;;;;;;;6.05;100.00;102066.50;10232703;28;20049;-72
2024/01/25 04:51:53;;;;;;;34.10;14.77;;;;;;;6.04;100.00;102050.50;10233568;28;20408;-73
2024/01/25 04:56:49;;;;;;;35.22;15.27;;;;;;;6.02;100.00;102050.75;10221600;28;20065;-72
2024/01/25 05:01:46;;;;;;;32.55;15.25;;;;;;;6.03;100.00;102057.78;10234080;28;20482;-73
2024/01/25 05:06:43;;;;;;;34.25;15.45;;;;;;;6.00;100.00;102042.03;10232405;28;20045;-72
2024/01/25 05:11:40;;;;;;;25.65;14.57;;;;;;;5.91;100.00;102059.81;10230901;28;20111;-71
2024/01/25 05:16:36;;;;;;;45.42;15.90;;;;;;;5.90;100.00;102069.03;10230264;28;20117;-71
2024/01/25 05:21:33;;;;;;;42.92;15.85;;;;;;;5.77;100.00;102063.97;10233267;28;20513;-72
2024/01/25 05:26:29;;;;;;;39.00;15.18;;;;;;;5.70;100.00;102089.41;10225972;28;20049;-71
2024/01/25 05:31:26;;;;;;;43.88;16.48;;;;;;;5.70;100.00;102070.41;10226927;28;20310;-71
2024/01/25 05:36:23;;;;;;;31.65;15.23;;;;;;;5.68;100.00;102072.53;10220721;28;20060;-73
2024/01/25 05:41:19;;;;;;;39.08;16.70;;;;;;;5.78;100.00;102081.88;10231508;28;20049;-73
2024/01/25 05:46:16;;;;;;;39.55;15.77;;;;;;;5.76;100.00;102078.63;10220446;28;20037;-72
2024/01/25 05:51:13;;;;;;;29.77;15.82;;;;;;;5.66;100.00;102091.00;10236854;28;20440;-73
2024/01/25 05:56:10;;;;;;;43.72;17.67;;;;;;;5.63;100.00;102086.06;10223167;28;20193;-74
2024/01/25 06:01:07;;;;;;;38.45;16.20;;;;;;;5.68;100.00;102094.25;10228097;28;20052;-71
2024/01/25 06:06:04;;;;;;;33.85;16.98;;;;;;;5.74;100.00;102118.78;10237985;28;20041;-72
2024/01/25 06:11:00;;;;;;;31.48;15.25;;;;;;;5.75;100.00;102109.53;10237922;28;20091;-74
2024/01/25 06:15:57;;;;;;;30.73;16.08;;;;;;;5.78;100.00;102103.59;10225731;28;20052;-74
2024/01/25 06:20:54;;;;;;;35.55;15.60;;;;;;;5.81;100.00;102122.13;10219128;28;20049;-72
2024/01/25 06:25:50;;;;;;;36.88;16.02;;;;;;;5.81;100.00;102135.69;10227726;28;20042;-75
2024/01/25 06:30:47;;;;;;;42.13;16.85;;;;;;;5.84;100.00;102146.03;10234766;28;20041;-72
2024/01/25 06:35:43;;;;;;;53.22;17.05;;;;;;;5.88;100.00;102158.03;10230383;28;20052;-73
2024/01/25 06:40:40;;;;;;;42.22;19.05;;;;;;;5.87;100.00;102168.09;10227242;28;20148;-72
2024/01/25 06:45:39;;;;;;;42.30;15.68;;;;;;;5.81;100.00;102162.84;10234072;28;20110;-72
2024/01/25 06:50:36;;;;;;;37.00;16.60;;;;;;;5.86;100.00;102171.03;10223520;28;20053;-72
2024/01/25 06:55:33;;;;;;;36.78;15.40;;;;;;;5.84;100.00;102184.03;10232425;28;20053;-75
2024/01/25 07:00:29;;;;;;;36.83;18.02;;;;;;;5.81;100.00;102181.84;10232394;28;20049;-71
2024/01/25 07:05:29;;;;;;;36.20;16.50;;;;;;;5.83;100.00;102199.50;10225604;28;20064;-70
2024/01/25 07:10:26;;;;;;;40.88;16.88;;;;;;;5.78;100.00;102217.59;10225818;28;20049;-73
2024/01/25 07:15:23;;;;;;;45.17;17.40;;;;;;;5.78;100.00;102234.72;10227192;28;20050;-75
2024/01/25 07:20:20;;;;;;;42.05;15.60;;;;;;;5.69;100.00;102234.31;10235597;28;20095;-71
2024/01/25 07:25:19;;;;;;;43.70;17.33;;;;;;;5.70;100.00;102237.84;10229703;28;20110;-72
2024/01/25 07:30:16;;;;;;;38.15;16.23;;;;;;;5.76;100.00;102236.88;10232874;28;20042;-74
2024/01/25 07:35:13;;;;;;;43.25;17.45;;;;;;;5.73;100.00;102241.94;10216837;28;20564;-75
2024/01/25 07:40:10;;;;;;;36.35;16.25;;;;;;;5.74;100.00;102230.03;10225876;28;20094;-72
2024/01/25 07:45:07;;;;;;;41.67;16.50;;;;;;;5.73;100.00;102241.94;10231398;28;20480;-74
2024/01/25 07:50:04;;;;;;;36.78;15.30;;;;;;;5.74;100.00;102240.91;10234983;28;20056;-73
2024/01/25 07:55:01;;;;;;;50.42;17.38;;;;;;;5.76;100.00;102236.06;10229127;28;20091;-74
2024/01/25 08:00:00;;;;;;;31.77;15.45;;;;;;;5.78;100.00;102261.03;10232490;28;20053;-71
2024/01/25 08:04:57;;;;;;;40.83;16.88;;;;;;;5.87;100.00;102254.09;10227703;28;20042;-73
2024/01/25 08:09:57;;;;;;;27.58;16.58;;;;;;;5.82;100.00;102251.31;10231170;28;20458;-73
2024/01/25 08:14:54;;;;;;;46.47;16.08;;;;;;;5.86;100.00;102269.59;10242505;28;20045;-72
2024/01/25 08:19:51;;;;;;;34.85;16.05;;;;;;;5.85;100.00;102267.13;10225909;28;20099;-74
2024/01/25 08:24:48;;;;;;;43.97;16.02;;;;;;;5.86;100.00;102279.63;10227030;28;20083;-71
2024/01/25 08:29:45;;;;;;;35.65;16.20;;;;;;;5.88;100.00;102277.50;10226237;28;20045;-71
2024/01/25 08:34:41;;;;;;;31.98;15.23;;;;;;;5.90;100.00;102286.22;10234437;28;20500;-70
2024/01/25 08:39:38;;;;;;;39.00;15.73;;;;;;;5.93;100.00;102280.28;10234129;28;20046;-72
2024/01/25 08:44:34;;;;;;;37.60;15.85;;;;;;;5.96;100.00;102290.66;10234174;28;20087;-72
2024/01/25 08:49:31;;;;;;;45.80;16.77;;;;;;;5.99;100.00;102290.19;10239077;28;20069;-72
2024/01/25 08:54:28;;;;;;;33.20;15.50;;;;;;;6.06;100.00;102288.13;10217703;28;20452;-72
2024/01/25 08:59:24;;;;;;;29.55;15.93;;;;;;;6.04;100.00;102294.88;10233972;28;20045;-72
2024/01/25 09:04:21;;;;;;;44.63;16.83;;;;;;;6.12;100.00;102305.28;10235765;28;20037;-73
2024/01/25 09:09:21;;;;;;;36.85;16.30;;;;;;;6.05;100.00;102294.59;10235743;28;20508;-72
2024/01/25 09:14:17;;;;;;;42.58;15.75;;;;;;;6.04;100.00;102308.44;10228602;28;20053;-71
2024/01/25 09:19:14;;;;;;;32.70;16.02;;;;;;;6.03;100.00;102329.31;10198549;28;20045;-72
2024/01/25 09:24:12;;;;;;;43.15;16.40;;;;;;;5.99;100.00;102327.38;10204868;28;20108;-72
2024/01/25 09:29:09;;;;;;;42.65;16.70;;;;;;;6.02;100.00;102338.56;10186456;28;20037;-70
2024/01/25 09:34:06;;;;;;;39.72;16.35;;;;;;;6.04;100.00;102341.03;10186722;28;20049;-72
2024/01/25 09:39:04;;;;;;;35.13;15.88;;;;;;;6.00;100.00;102351.56;10174521;28;20050;-73
2024/01/25 09:44:00;;;;;;;33.40;14.75;;;;;;;6.07;100.00;102354.91;10177950;28;20123;-72
2024/01/25 09:48:57;;;;;;;36.15;16.35;;;;;;;6.05;100.00;102365.19;10187652;28;20050;-70
2024/01/25 09:53:55;;;;;;;37.33;15.35;;;;;;;6.11;100.00;102375.09;10182472;28;20034;-71
2024/01/25 09:58:52;;;;;;;41.05;15.38;;;;;;;6.12;100.00;102381.34;10183787;28;20038;-73
2024/01/25 10:03:49;;;;;;;33.47;15.95;;;;;;;6.06;100.00;102377.72;10179587;28;20050;-72
2024/01/25 10:08:46;;;;;;;35.83;18.02;;;;;;;6.16;100.00;102398.78;10179404;28;20422;-71
2024/01/25 10:13:53;;;;;;;33.53;15.90;;;;;;;6.21;100.00;102400.75;10185869;28;20044;-71
2024/01/25 10:18:51;;;;;;;45.85;16.85;;;;;;;6.29;100.00;102400.38;10185019;28;20045;-71
2024/01/25 10:23:51;;;;;;;32.10;16.27;;;;;;;6.27;100.00;102407.94;10176602;28;20519;-71
2024/01/25 10:28:52;;;;;;;36.92;15.85;;;;;;;6.25;100.00;102407.34;10180630;28;20050;-69
2024/01/25 10:33:57;;;;;;;28.13;15.18;;;;;;;6.21;100.00;102430.66;10174822;28;20050;-70
2024/01/25 10:38:55;;;;;;;29.17;16.60;;;;;;;6.24;100.00;102422.00;10219197;28;20145;-70
2024/01/25 10:43:52;;;;;;;36.10;15.23;;;;;;;6.38;100.00;102412.44;10227691;28;20042;-71
2024/01/25 10:48:50;;;;;;;36.13;16.20;;;;;;;6.38;100.00;102412.44;10231141;28;20410;-71
2024/01/25 10:53:48;;;;;;;33.53;17.05;;;;;;;6.53;100.00;102409.97;10233991;28;20053;-73
2024/01/25 10:58:45;;;;;;;36.60;15.73;;;;;;;6.41;100.00;102422.00;10224994;28;20046;-71
2024/01/25 11:03:42;;;;;;;41.72;17.65;;;;;;;6.48;100.00;102415.31;10225458;28;20045;-71
2024/01/25 11:08:40;;;;;;;32.40;16.27;;;;;;;6.53;100.00;102420.84;10233957;28;20072;-70
2024/01/25 11:13:43;;;;;;;36.35;16.60;;;;;;;6.64;100.00;102416.38;10223797;28;20455;-74
2024/01/25 11:18:54;;;;;;;33.15;16.95;;;;;;;6.62;100.00;102434.00;10224271;28;20136;-71
2024/01/25 11:23:59;;;;;;;36.00;17.20;;;;;;;6.58;100.00;102428.25;10226039;28;20048;-72
2024/01/25 11:28:56;;;;;;;40.88;18.38;;;;;;;6.60;100.00;102436.16;10220806;28;20488;-72
2024/01/25 11:33:57;;;;;;;37.03;18.45;;;;;;;6.70;100.00;102425.41;10236674;28;20045;-72
2024/01/25 11:38:54;;;;;;;34.40;16.30;;;;;;;6.62;100.00;102431.28;10223219;28;20072;-73
2024/01/25 11:43:50;;;;;;;41.58;17.70;;;;;;;6.79;100.00;102429.34;10225239;28;20042;-72
2024/01/25 11:48:47;;;;;;;32.60;16.10;;;;;;;6.70;100.00;102430.84;10224828;28;20468;-71
2024/01/25 11:53:44;;;;;;;28.35;17.30;;;;;;;6.60;100.00;102425.28;10225549;28;20045;-74
2024/01/25 11:58:41;;;;;;;34.28;16.20;;;;;;;6.60;100.00;102430.72;10217959;28;20096;-71
2024/01/25 12:03:38;;;;;;;39.28;16.38;;;;;;;6.48;100.00;102431.63;10204130;28;20072;-70
2024/01/25 12:08:35;;;;;;;34.80;15.88;;;;;;;6.52;100.00;102421.91;10192613;28;20038;-71
2024/01/25 12:13:38;;;;;;;37.95;15.75;;;;;;;6.70;100.00;102425.41;10173903;28;20050;-73
2024/01/25 12:18:35;;;;;;;30.17;15.18;;;;;;;6.60;100.00;102430.72;10188802;28;20046;-71
2024/01/25 12:23:37;;;;;;;40.25;15.60;;;;;;;6.57;100.00;102429.31;10203037;28;20042;-72
2024/01/25 12:28:34;;;;;;;32.47;14.75;;;;;;;6.60;100.00;102431.53;10241119;28;20045;-71
2024/01/25 12:33:32;;;;;;;32.70;15.57;;;;;;;6.67;100.00;102450.38;10228495;28;20154;-70
2024/01/25 12:38:31;;;;;;;25.55;15.05;;;;;;;6.72;100.00;102445.03;10228806;28;20052;-72
2024/01/25 12:43:29;;;;;;;36.70;14.70;;;;;;;6.61;100.00;102467.69;10229059;28;20049;-71
2024/01/25 12:48:26;;;;;;;26.55;14.77;;;;;;;6.56;100.00;102462.19;10228943;28;20463;-71
2024/01/25 12:53:23;;;;;;;33.90;14.77;;;;;;;6.49;100.00;102457.72;10229790;28;20059;-70
2024/01/25 12:58:19;;;;;;;29.60;15.07;;;;;;;6.51;100.00;102461.00;10224996;28;20420;-71
2024/01/25 13:03:16;;;;;;;33.15;15.68;;;;;;;6.63;100.00;102447.34;10230386;28;20052;-71
2024/01/25 13:08:13;;;;;;;36.90;15.82;;;;;;;6.59;100.00;102461.66;10227346;28;20488;-71
2024/01/25 13:13:10;;;;;;;25.60;15.38;;;;;;;6.59;100.00;102453.50;10238957;28;20495;-71
2024/01/25 13:18:06;;;;;;;21.98;14.32;;;;;;;6.55;100.00;102457.81;10229392;28;20095;-72
2024/01/25 13:23:03;;;;;;;27.52;14.55;;;;;;;6.57;100.00;102459.22;10227142;28;20051;-72
2024/01/25 13:27:59;;;;;;;31.90;14.68;;;;;;;6.65;100.00;102455.25;10234868;28;20504;-71
2024/01/25 13:32:56;;;;;;;26.13;14.43;;;;;;;6.66;100.00;102457.72;10225495;28;20042;-73
2024/01/25 13:37:52;;;;;;;28.98;14.73;;;;;;;6.61;100.00;102454.91;10232365;28;20042;-74
2024/01/25 13:42:49;;;;;;;19.25;14.25;;;;;;;6.62;100.00;102466.63;10218147;28;20042;-72
2024/01/25 13:47:46;;;;;;;28.83;15.77;;;;;;;6.67;100.00;102466.69;10235160;28;20037;-74
2024/01/25 13:52:43;;;;;;;32.38;14.15;;;;;;;6.74;100.00;102459.19;10222016;28;20057;-72
2024/01/25 13:57:39;;;;;;;23.88;14.23;;;;;;;6.80;100.00;102460.94;10227380;28;20053;-71
2024/01/25 14:02:36;;;;;;;22.90;13.60;;;;;;;6.98;100.00;102475.28;10234019;28;20049;-72
2024/01/25 14:07:32;;;;;;;27.95;13.93;;;;;;;7.28;100.00;102472.97;10227544;28;20543;-73
2024/01/25 14:12:31;;;;;;;27.55;13.68;;;;;;;7.36;100.00;102467.13;10222059;28;20041;-72
2024/01/25 14:17:27;;;;;;;25.83;13.57;;;;;;;7.57;100.00;102465.47;10221997;28;20072;-73
2024/01/25 14:22:24;;;;;;;35.15;14.05;;;;;;;7.73;100.00;102471.09;10232108;28;20057;-73
2024/01/25 14:27:27;;;;;;;29.23;15.85;;;;;;;7.67;100.00;102467.47;10231768;28;20120;-72
2024/01/25 14:32:25;;;;;;;30.08;14.57;;;;;;;7.53;100.00;102468.94;10231036;28;20164;-72
2024/01/25 14:37:21;;;;;;;36.28;13.70;;;;;;;7.36;100.00;102466.28;10233236;28;20623;-72
2024/01/25 14:42:18;;;;;;;33.70;14.43;;;;;;;7.26;100.00;102466.16;10233405;28;20130;-72
2024/01/25 14:47:20;;;;;;;24.25;13.98;;;;;;;7.22;100.00;102465.84;10222151;28;20194;-72
2024/01/25 14:52:16;;;;;;;34.30;15.27;;;;;;;7.31;100.00;102464.34;10229292;28;20049;-72
2024/01/25 14:57:14;;;;;;;31.75;15.13;;;;;;;7.50;100.00;102466.75;10238371;28;20064;-72
2024/01/25 15:02:11;;;;;;;16.42;12.23;;;;;;;7.38;100.00;102470.41;10228635;28;20049;-72
2024/01/25 15:07:07;;;;;;;25.45;12.20;;;;;;;7.12;100.00;102482.00;10231897;28;20041;-71
2024/01/25 15:12:04;;;;;;;24.52;12.60;;;;;;;6.89;100.00;102486.63;10229859;28;20049;-75
2024/01/25 15:17:01;;;;;;;30.73;13.77;;;;;;;6.85;100.00;102490.91;10226946;28;20045;-71
2024/01/25 15:21:58;;;;;;;23.02;13.55;;;;;;;6.74;100.00;102486.38;10234130;28;20128;-73
2024/01/25 15:26:55;;;;;;;29.38;13.85;;;;;;;6.76;100.00;102495.09;10223320;28;20150;-72
2024/01/25 15:31:51;;;;;;;21.00;14.98;;;;;;;6.81;100.00;102492.47;10228656;28;20398;-73
2024/01/25 15:36:48;;;;;;;28.50;15.02;;;;;;;6.74;100.00;102505.41;10225598;28;20503;-72
2024/01/25 15:41:49;;;;;;;26.17;14.10;;;;;;;6.74;100.00;102491.81;10226994;28;20054;-72
2024/01/25 15:46:45;;;;;;;18.63;14.27;;;;;;;6.58;100.00;102492.66;10233139;28;20041;-72
2024/01/25 15:51:42;;;;;;;18.92;14.68;;;;;;;6.49;100.00;102490.31;10222787;28;20504;-73
2024/01/25 15:56:38;;;;;;;35.13;16.63;;;;;;;6.44;100.00;102497.59;10224912;28;20051;-72
2024/01/25 16:01:35;;;;;;;26.38;16.88;;;;;;;6.29;100.00;102500.88;10230344;28;20037;-72
2024/01/25 16:06:32;;;;;;;24.52;16.65;;;;;;;6.37;100.00;102499.63;10227524;28;20042;-73
2024/01/25 16:11:29;;;;;;;27.13;16.38;;;;;;;6.41;100.00;102493.47;10232746;28;20091;-72
2024/01/25 16:16:25;;;;;;;23.35;15.73;;;;;;;6.39;100.00;102497.50;10233731;28;20042;-71
2024/01/25 16:21:22;;;;;;;25.10;16.45;;;;;;;6.42;100.00;102495.09;10229829;28;20046;-72
2024/01/25 16:26:18;;;;;;;20.30;15.88;;;;;;;6.43;100.00;102496.78;10233845;28;20045;-71
2024/01/25 16:31:15;;;;;;;24.23;16.73;;;;;;;6.31;100.00;102504.16;10232154;28;20519;-71
2024/01/25 16:36:11;;;;;;;22.30;18.13;;;;;;;6.28;100.00;102515.50;10220213;28;20046;-74
2024/01/25 16:41:08;;;;;;;22.00;16.20;;;;;;;6.33;100.00;102515.59;10189951;28;20073;-72
2024/01/25 16:46:05;;;;;;;26.52;15.85;;;;;;;6.23;100.00;102504.56;10184953;28;20128;-72
2024/01/25 16:51:02;;;;;;;23.70;16.17;;;;;;;6.14;100.00;102492.44;10191530;28;20045;-73
2024/01/25 16:55:58;;;;;;;33.47;17.20;;;;;;;6.02;100.00;102495.22;10186970;28;20053;-73
2024/01/25 17:00:55;;;;;;;27.83;17.00;;;;;;;5.97;100.00;102493.25;10195034;28;20304;-73
2024/01/25 17:05:51;;;;;;;29.40;17.10;;;;;;;5.91;100.00;102483.31;10189385;28;20050;-72
2024/01/25 17:10:48;;;;;;;22.85;17.42;;;;;;;5.86;100.00;102488.66;10185437;28;20144;-73
2024/01/25 17:15:44;;;;;;;21.00;17.60;;;;;;;5.86;100.00;102497.63;10185510;28;20045;-72
2024/01/25 17:20:41;;;;;;;32.78;17.58;;;;;;;5.84;100.00;102482.63;10201080;28;20119;-73
2024/01/25 17:25:38;;;;;;;29.08;17.63;;;;;;;5.91;100.00;102488.75;10230528;28;20529;-72
2024/01/25 17:30:34;;;;;;;28.67;16.60;;;;;;;5.93;100.00;102489.31;10230729;28;20071;-73
2024/01/25 17:35:30;;;;;;;37.75;19.13;;;;;;;5.90;100.00;102481.69;10228516;28;20034;-73
2024/01/25 17:40:27;;;;;;;26.42;17.00;;;;;;;5.78;100.00;102483.59;10229366;28;20056;-72
2024/01/25 17:45:24;;;;;;;22.85;16.48;;;;;;;5.72;100.00;102468.28;10226234;28;20053;-71
2024/01/25 17:50:20;;;;;;;29.58;17.15;;;;;;;5.59;100.00;102464.81;10229893;28;20053;-72
2024/01/25 17:55:17;;;;;;;30.20;18.35;;;;;;;5.49;100.00;102454.56;10224115;28;20091;-73
2024/01/25 18:00:26;;;;;;;36.33;18.80;;;;;;;5.36;100.00;102449.44;10227078;28;20046;-73
2024/01/25 18:05:22;;;;;;;27.10;18.27;;;;;;;5.30;100.00;102439.53;10225195;28;20055;-72
2024/01/25 18:10:19;;;;;;;32.05;18.48;;;;;;;5.27;100.00;102448.16;10228698;28;20467;-72
2024/01/25 18:15:17;;;;;;;31.35;19.35;;;;;;;5.27;100.00;102448.16;10233556;28;20056;-72
2024/01/25 18:20:14;;;;;;;29.73;19.00;;;;;;;5.26;100.00;102428.31;10228183;28;20570;-70
2024/01/25 18:25:11;;;;;;;36.17;19.70;;;;;;;5.30;100.00;102433.28;10227581;28;20046;-72
2024/01/25 18:30:08;;;;;;;31.95;19.10;;;;;;;5.33;100.00;102427.38;10235016;28;20420;-72
2024/01/25 18:35:05;;;;;;;38.80;23.33;;;;;;;5.29;100.00;102421.59;10229309;28;20132;-73
2024/01/25 18:40:03;;;;;;;32.33;18.75;;;;;;;5.22;100.00;102420.91;10236390;28;20107;-76
2024/01/25 18:45:03;;;;;;;34.15;19.20;;;;;;;5.14;100.00;102413.97;10233161;28;20144;-71
2024/01/25 18:50:00;;;;;;;38.85;19.48;;;;;;;5.11;100.00;102403.63;10231966;28;20034;-73
2024/01/25 18:54:58;;;;;;;31.02;19.90;;;;;;;5.01;100.00;102419.66;10220206;28;20049;-73
2024/01/25 18:59:55;;;;;;;27.88;19.08;;;;;;;4.91;100.00;102416.75;10221743;28;20037;-73
2024/01/25 19:04:51;;;;;;;30.83;19.73;;;;;;;4.84;100.00;102409.56;10219203;28;20057;-72
2024/01/25 19:09:48;;;;;;;33.25;20.90;;;;;;;4.76;100.00;102400.97;10223173;28;20037;-72
2024/01/25 19:14:44;;;;;;;34.22;19.30;;;;;;;4.68;100.00;102399.44;10224057;28;20056;-72
2024/01/25 19:19:42;;;;;;;32.47;21.05;;;;;;;4.67;100.00;102397.81;10227735;28;20132;-72
2024/01/25 19:24:38;;;;;;;40.03;21.23;;;;;;;4.60;100.00;102397.94;10218882;28;20136;-72
2024/01/25 19:29:35;;;;;;;31.88;19.77;;;;;;;4.68;100.00;102394.03;10220698;28;20065;-71
2024/01/25 19:34:32;;;;;;;26.55;19.73;;;;;;;4.61;100.00;102386.00;10224698;28;20045;-73
2024/01/25 19:39:28;;;;;;;34.13;19.88;;;;;;;4.53;100.00;102380.16;10234997;28;20046;-71
2024/01/25 19:44:25;;;;;;;36.75;19.23;;;;;;;4.67;100.00;102376.13;10234499;28;20512;-72
2024/01/25 19:49:21;;;;;;;30.08;18.95;;;;;;;4.67;100.00;102373.41;10235365;28;20479;-71
2024/01/25 19:54:18;;;;;;;36.70;20.15;;;;;;;4.75;100.00;102375.75;10233258;28;20048;-71
2024/01/25 19:59:15;;;;;;;30.23;19.08;;;;;;;4.80;100.00;102373.16;10231796;28;20467;-72
2024/01/25 20:04:12;;;;;;;32.53;19.65;;;;;;;4.87;100.00;102361.34;10232613;28;20467;-72
2024/01/25 20:09:09;;;;;;;36.47;19.63;;;;;;;4.92;100.00;102370.44;10229029;28;20072;-74
2024/01/25 20:14:06;;;;;;;36.05;19.38;;;;;;;4.97;100.00;102375.13;10232458;28;20519;-72
2024/01/25 20:19:02;;;;;;;31.80;19.42;;;;;;;5.01;100.00;102370.88;10234464;28;20505;-72
2024/01/25 20:24:01;;;;;;;36.03;19.42;;;;;;;5.00;100.00;102375.47;10231935;28;20045;-72
2024/01/25 20:28:57;;;;;;;36.47;19.02;;;;;;;5.11;100.00;102365.66;10233337;28;20060;-71
2024/01/25 20:33:54;;;;;;;33.58;19.48;;;;;;;5.15;100.00;102361.41;10225939;28;20049;-72
2024/01/25 20:38:50;;;;;;;37.70;19.92;;;;;;;5.16;100.00;102357.63;10231578;28;20046;-71
2024/01/25 20:43:47;;;;;;;37.15;19.67;;;;;;;5.13;100.00;102358.13;10230151;28;20037;-73
2024/01/25 20:48:44;;;;;;;28.05;18.17;;;;;;;5.07;100.00;102365.31;10225364;28;20061;-75
2024/01/25 20:53:41;;;;;;;36.08;20.42;;;;;;;5.18;100.00;102355.50;10229691;28;20578;-71
2024/01/25 20:58:50;;;;;;;35.55;19.52;;;;;;;5.23;100.00;102358.31;10227845;28;20045;-70
2024/01/25 21:03:46;;;;;;;34.00;18.55;;;;;;;5.24;100.00;102359.13;10233543;28;20052;-70
2024/01/25 21:08:43;;;;;;;33.83;19.75;;;;;;;5.27;100.00;102348.63;10230779;28;20045;-70
2024/01/25 21:13:42;;;;;;;27.20;18.17;;;;;;;5.17;100.00;102353.84;10186638;28;20054;-70
2024/01/25 21:18:39;;;;;;;22.85;17.92;;;;;;;5.25;100.00;102345.31;10200132;28;20042;-69
2024/01/25 21:23:35;;;;;;;27.08;17.60;;;;;;;5.27;100.00;102345.09;10191508;28;20046;-69
2024/01/25 21:28:33;;;;;;;28.30;19.13;;;;;;;5.30;100.00;102346.50;10195557;28;20088;-70
2024/01/25 21:33:29;;;;;;;32.28;18.08;;;;;;;5.28;100.00;102339.41;10215947;28;20103;-69
2024/01/25 21:38:26;;;;;;;42.03;19.58;;;;;;;5.28;100.00;102331.28;10222470;28;20061;-70
2024/01/25 21:43:22;;;;;;;31.42;19.23;;;;;;;5.27;100.00;102331.53;10231013;28;20055;-70
2024/01/25 21:48:19;;;;;;;32.45;20.05;;;;;;;5.24;100.00;102338.28;10224612;28;20098;-69
2024/01/25 21:53:16;;;;;;;38.67;20.73;;;;;;;5.24;100.00;102340.97;10231836;28;20042;-69
2024/01/25 21:58:13;;;;;;;26.00;18.63;;;;;;;5.23;100.00;102336.59;10228978;28;20049;-69
2024/01/25 22:03:09;;;;;;;33.00;19.83;;;;;;;5.23;100.00;102331.19;10229935;28;20531;-69
2024/01/25 22:08:06;;;;;;;34.45;20.83;;;;;;;5.21;100.00;102332.50;10230553;28;20553;-69
2024/01/25 22:13:03;;;;;;;38.80;20.52;;;;;;;5.16;100.00;102330.50;10221691;28;20068;-70
2024/01/25 22:17:59;;;;;;;37.65;19.38;;;;;;;5.12;100.00;102323.91;10225761;28;20037;-69